Gooberville, Louisiana
Current Conditions -  °F | °C
As of 12:53 PM on Monday 20 Oct 2014 (Local Time) from KAEX Reporting Station
Clear Clear  
Wind Chill: 75°   Ceiling: Unl
Heat Index: 75°   Visibility: 10mi
Dew Point: 50°   Wind: 6mph
Humidity: 41%   Direction: 10°N
Pressure: 30.05"   Gusts: NA
Location:  31.4254°N, 92.7765°W
Report Text: KAEX 201753Z 01005KT 10SM CLR 24/10 A3005 RMK AO2 SLP178 T02390100 10244 20083 58014
Loading
Personal Weather Stations






























Interactive Weather Map
Tropical Storm Tracking
New forecast layout! Learn more

10-Day Weather Forecast

Advertisements
Track Severe Weather on mobile